createdAt,value
2023-02-19T00:01:46.920Z,2.17
2023-02-19T00:04:15.855Z,2.17
2023-02-19T00:06:44.234Z,1.75
2023-02-19T00:09:13.233Z,2.35
2023-02-19T00:11:40.571Z,2.00
2023-02-19T00:14:08.272Z,2.20
2023-02-19T00:16:38.101Z,2.35
2023-02-19T00:19:07.987Z,2.00
2023-02-19T00:21:35.522Z,2.22
2023-02-19T00:24:05.307Z,1.90
2023-02-19T00:26:32.850Z,1.60
2023-02-19T00:29:01.500Z,1.77
2023-02-19T00:31:33.206Z,1.80
2023-02-19T00:34:05.856Z,2.55
2023-02-19T00:36:36.288Z,1.80
2023-02-19T00:39:04.858Z,1.70
2023-02-19T00:41:32.257Z,1.92
2023-02-19T00:44:01.944Z,1.73
2023-02-19T00:46:38.029Z,2.45
2023-02-19T00:49:06.496Z,1.98
2023-02-19T00:51:36.753Z,2.22
2023-02-19T00:54:05.907Z,1.98
2023-02-19T00:56:33.937Z,1.80
2023-02-19T00:59:01.030Z,1.88
2023-02-19T01:01:28.197Z,2.38
2023-02-19T01:03:55.572Z,2.00
2023-02-19T01:06:22.909Z,1.98
2023-02-19T01:08:50.416Z,1.92
2023-02-19T01:11:18.892Z,1.73
2023-02-19T01:13:45.961Z,1.90
2023-02-19T01:16:25.130Z,1.58
2023-02-19T01:18:52.674Z,1.90
2023-02-19T01:21:23.716Z,2.05
2023-02-19T01:23:52.079Z,2.17
2023-02-19T01:26:22.144Z,2.00
2023-02-19T01:28:49.341Z,1.77
2023-02-19T01:31:19.163Z,1.40
2023-02-19T01:33:51.954Z,1.75
2023-02-19T01:36:19.483Z,1.80
2023-02-19T01:38:46.966Z,1.92
2023-02-19T01:41:18.066Z,2.55
2023-02-19T01:44:13.312Z,1.38
2023-02-19T01:46:42.695Z,2.42
2023-02-19T01:49:16.519Z,2.10
2023-02-19T01:52:08.488Z,2.10
2023-02-19T01:54:38.626Z,1.88
2023-02-19T01:57:12.127Z,2.13
2023-02-19T01:59:44.439Z,2.17
2023-02-19T02:02:11.946Z,2.03
2023-02-19T02:04:39.278Z,2.10
2023-02-19T02:07:29.829Z,1.75
2023-02-19T02:10:16.139Z,2.03
2023-02-19T02:12:43.282Z,2.83
2023-02-19T02:15:10.693Z,2.83
2023-02-19T02:18:18.761Z,3.10
2023-02-19T02:21:04.621Z,3.00
2023-02-19T02:23:55.195Z,3.42
2023-02-19T02:26:55.451Z,3.80
2023-02-19T02:29:45.505Z,4.80
2023-02-19T02:32:19.111Z,3.80
2023-02-19T02:34:52.736Z,4.22
2023-02-19T02:37:20.236Z,4.55
2023-02-19T02:39:48.204Z,4.20
2023-02-19T02:42:30.303Z,4.22
2023-02-19T02:45:17.142Z,4.03
2023-02-19T02:47:51.299Z,4.32
2023-02-19T02:50:25.184Z,5.68
2023-02-19T02:55:44.643Z,4.15
2023-02-19T02:58:13.568Z,4.60
2023-02-19T03:01:04.882Z,4.90
2023-02-19T03:03:33.064Z,4.30
2023-02-19T03:06:06.884Z,5.20
2023-02-19T03:08:39.809Z,4.75
2023-02-19T03:11:28.780Z,4.83
2023-02-19T03:14:28.094Z,3.95
2023-02-19T03:17:19.240Z,4.70
2023-02-19T03:19:51.593Z,4.43
2023-02-19T03:22:23.834Z,3.47
2023-02-19T03:25:19.053Z,3.70
2023-02-19T03:27:48.418Z,3.72
2023-02-19T03:30:23.134Z,3.22
2023-02-19T03:33:02.320Z,3.35
2023-02-19T03:35:36.148Z,2.90
2023-02-19T03:38:18.856Z,3.67
2023-02-19T03:41:00.033Z,3.72
2023-02-19T03:43:41.746Z,3.45
2023-02-19T03:46:23.775Z,3.28
2023-02-19T03:48:59.616Z,3.75
2023-02-19T03:51:53.997Z,3.85
2023-02-19T03:54:30.457Z,3.10
2023-02-19T03:57:16.643Z,3.72
2023-02-19T04:00:03.799Z,4.13
2023-02-19T04:02:47.604Z,4.03
2023-02-19T04:05:19.711Z,3.55
2023-02-19T04:07:51.165Z,3.78
2023-02-19T04:10:19.633Z,3.63
2023-02-19T04:12:54.497Z,4.00
2023-02-19T04:15:27.413Z,3.55
2023-02-19T04:18:07.885Z,3.53
2023-02-19T04:20:42.663Z,3.38
2023-02-19T04:23:10.661Z,3.70
2023-02-19T04:25:41.682Z,3.50
2023-02-19T04:28:09.627Z,3.50
2023-02-19T04:30:36.790Z,3.75
2023-02-19T04:33:04.038Z,4.18
2023-02-19T04:35:31.228Z,3.67
2023-02-19T04:37:58.295Z,3.35
2023-02-19T04:40:25.372Z,4.03
2023-02-19T04:42:53.521Z,3.47
2023-02-19T04:45:20.627Z,4.25
2023-02-19T04:47:47.651Z,3.53
2023-02-19T04:50:14.918Z,3.38
2023-02-19T04:52:41.958Z,3.90
2023-02-19T04:55:09.484Z,4.40
2023-02-19T04:57:36.718Z,4.45
2023-02-19T05:00:05.029Z,3.58
2023-02-19T05:02:32.454Z,4.65
2023-02-19T05:04:59.514Z,3.92
2023-02-19T05:07:26.743Z,4.43
2023-02-19T05:09:55.108Z,4.43
2023-02-19T05:12:22.441Z,4.30
2023-02-19T05:14:49.645Z,4.40
2023-02-19T05:17:16.695Z,3.97
2023-02-19T05:19:44.102Z,4.60
2023-02-19T05:22:11.149Z,4.40
2023-02-19T05:24:38.129Z,3.97
2023-02-19T05:27:05.381Z,4.70
2023-02-19T05:29:32.844Z,4.68
2023-02-19T05:31:59.870Z,4.38
2023-02-19T05:34:27.027Z,4.45
2023-02-19T05:36:54.181Z,5.20
2023-02-19T05:39:21.185Z,4.32
2023-02-19T05:41:48.262Z,4.13
2023-02-19T05:44:15.334Z,4.28
2023-02-19T05:46:42.352Z,4.10
2023-02-19T05:49:09.441Z,4.88
2023-02-19T05:51:36.600Z,4.80
2023-02-19T05:54:03.937Z,4.50
2023-02-19T05:56:40.630Z,4.75
2023-02-19T05:59:19.334Z,4.47
2023-02-19T06:01:47.336Z,4.82
2023-02-19T06:04:14.870Z,4.65
2023-02-19T06:06:43.892Z,5.03
2023-02-19T06:09:11.315Z,4.90
2023-02-19T06:11:39.757Z,4.68
2023-02-19T06:14:06.844Z,4.90
2023-02-19T06:16:34.763Z,5.03
2023-02-19T06:19:05.069Z,4.63
2023-02-19T06:21:32.544Z,4.32
2023-02-19T06:23:59.587Z,4.65
2023-02-19T06:26:26.852Z,4.18
2023-02-19T06:28:54.763Z,4.68
2023-02-19T06:31:23.572Z,5.00
2023-02-19T06:33:55.309Z,4.82
2023-02-19T06:36:23.110Z,4.07
2023-02-19T06:38:50.278Z,3.72
2023-02-19T06:41:18.222Z,4.40
2023-02-19T06:43:46.818Z,3.97
2023-02-19T06:46:14.270Z,4.15
2023-02-19T06:48:44.435Z,3.60
2023-02-19T06:51:19.001Z,4.38
2023-02-19T06:53:46.820Z,3.95
2023-02-19T06:56:29.039Z,4.03
2023-02-19T06:59:02.202Z,4.10
2023-02-19T07:01:31.143Z,3.85
2023-02-19T07:03:58.577Z,4.18
2023-02-19T07:06:27.160Z,4.30
2023-02-19T07:08:56.393Z,3.55
2023-02-19T07:11:24.302Z,4.43
2023-02-19T07:14:02.229Z,4.22
2023-02-19T07:16:30.394Z,3.78
2023-02-19T07:18:58.661Z,3.65
2023-02-19T07:21:26.895Z,3.40
2023-02-19T07:23:54.204Z,4.07
2023-02-19T07:26:22.291Z,3.85
2023-02-19T07:28:51.415Z,4.13
2023-02-19T07:31:20.158Z,3.90
2023-02-19T07:33:47.823Z,3.67
2023-02-19T07:36:17.994Z,4.32
2023-02-19T07:38:45.826Z,3.80
2023-02-19T07:41:13.822Z,3.90
2023-02-19T07:43:41.082Z,3.50
2023-02-19T07:46:13.929Z,4.13
2023-02-19T07:48:42.863Z,3.75
2023-02-19T07:51:19.728Z,3.83
2023-02-19T07:53:47.794Z,4.60
2023-02-19T07:56:14.944Z,4.50
2023-02-19T07:58:42.656Z,3.58
2023-02-19T08:01:43.107Z,4.18
2023-02-19T08:04:12.439Z,3.30
2023-02-19T08:06:39.787Z,3.20
2023-02-19T08:09:07.090Z,4.00
2023-02-19T08:11:52.712Z,4.35
2023-02-19T08:14:19.924Z,4.03
2023-02-19T08:16:51.167Z,3.45
2023-02-19T08:19:18.996Z,3.78
2023-02-19T08:21:46.146Z,3.25
2023-02-19T08:24:13.384Z,3.50
2023-02-19T08:26:40.470Z,3.28
2023-02-19T08:29:07.592Z,3.05
2023-02-19T08:31:35.934Z,3.33
2023-02-19T08:34:03.475Z,3.53
2023-02-19T08:36:30.656Z,3.83
2023-02-19T08:38:57.804Z,4.13
2023-02-19T08:41:24.898Z,4.20
2023-02-19T08:43:52.116Z,4.28
2023-02-19T08:46:19.398Z,4.10
2023-02-19T08:48:46.559Z,3.63
2023-02-19T08:51:13.834Z,4.03
2023-02-19T08:53:41.843Z,3.88
2023-02-19T08:56:17.609Z,4.03
2023-02-19T08:58:45.636Z,4.13
2023-02-19T09:01:15.661Z,4.20
2023-02-19T09:03:43.120Z,3.70
2023-02-19T09:06:21.102Z,4.10
2023-02-19T09:08:48.277Z,4.45
2023-02-19T09:11:15.915Z,5.30
2023-02-19T09:13:44.150Z,5.40
2023-02-19T09:16:12.048Z,5.53
2023-02-19T09:18:39.176Z,5.57
2023-02-19T09:21:07.013Z,5.22
2023-02-19T09:23:36.092Z,5.18
2023-02-19T09:26:10.307Z,5.22
2023-02-19T09:28:41.893Z,16.73
2023-02-19T09:31:11.916Z,15.88
2023-02-19T09:33:42.713Z,13.93
2023-02-19T09:36:19.468Z,16.38
2023-02-19T09:38:46.886Z,16.90
2023-02-19T09:41:20.523Z,8.55
2023-02-19T09:43:47.682Z,8.43
2023-02-19T09:46:26.701Z,11.13
2023-02-19T09:49:05.353Z,12.00
2023-02-19T09:51:37.076Z,7.75
2023-02-19T09:54:10.172Z,4.60
2023-02-19T09:56:37.315Z,8.18
2023-02-19T09:59:05.876Z,4.40
2023-02-19T10:01:37.896Z,4.90
2023-02-19T10:04:05.163Z,5.13
2023-02-19T10:06:32.994Z,4.30
2023-02-19T10:09:26.265Z,4.38
2023-02-19T10:11:55.929Z,6.43
2023-02-19T10:14:26.200Z,8.20
2023-02-19T10:16:53.940Z,4.65
2023-02-19T10:19:21.038Z,7.65
2023-02-19T10:21:48.243Z,6.97
2023-02-19T10:24:24.523Z,7.28
2023-02-19T10:26:52.063Z,8.43
2023-02-19T10:29:20.363Z,7.03
2023-02-19T10:31:47.501Z,5.85
2023-02-19T10:34:22.473Z,4.68
2023-02-19T10:36:52.573Z,4.57
2023-02-19T10:39:22.464Z,4.30
2023-02-19T10:41:56.452Z,10.40
2023-02-19T10:44:33.954Z,6.25
2023-02-19T10:47:02.465Z,5.72
2023-02-19T10:49:34.345Z,5.22
2023-02-19T10:52:17.839Z,5.50
2023-02-19T10:54:46.936Z,4.38
2023-02-19T10:57:21.377Z,4.78
2023-02-19T11:00:13.814Z,4.47
2023-02-19T11:02:41.143Z,5.32
2023-02-19T11:05:17.023Z,6.32
2023-02-19T11:07:48.655Z,5.00
2023-02-19T11:10:33.877Z,5.32
2023-02-19T11:13:04.771Z,5.03
2023-02-19T11:15:37.575Z,5.57
2023-02-19T11:18:14.064Z,6.22
2023-02-19T11:21:04.951Z,5.97
2023-02-19T11:23:38.006Z,5.38
2023-02-19T11:26:19.335Z,5.28
2023-02-19T11:28:46.639Z,5.78
2023-02-19T11:31:19.887Z,4.85
2023-02-19T11:34:01.392Z,4.55
2023-02-19T11:36:34.616Z,3.95
2023-02-19T11:39:27.947Z,4.30
2023-02-19T11:42:22.585Z,4.30
2023-02-19T11:45:19.047Z,4.97
2023-02-19T11:48:01.017Z,4.55
2023-02-19T11:51:03.132Z,4.82
2023-02-19T11:53:37.454Z,5.65
2023-02-19T11:56:16.914Z,4.80
2023-02-19T11:58:52.025Z,6.65
2023-02-19T12:02:08.697Z,5.00
2023-02-19T12:04:54.266Z,4.85
2023-02-19T12:07:23.065Z,5.18
2023-02-19T12:09:55.858Z,4.03
2023-02-19T12:12:40.842Z,4.50
2023-02-19T12:15:29.580Z,4.50
2023-02-19T12:18:21.677Z,4.50
2023-02-19T12:20:57.428Z,4.45
2023-02-19T12:23:39.839Z,3.28
2023-02-19T12:26:25.385Z,3.35
2023-02-19T12:29:29.979Z,3.67
2023-02-19T12:32:03.033Z,4.70
2023-02-19T12:34:33.032Z,3.85
2023-02-19T12:37:11.701Z,4.10
2023-02-19T12:39:57.106Z,3.90
2023-02-19T12:42:45.673Z,5.15
2023-02-19T12:45:36.659Z,4.30
2023-02-19T12:48:27.281Z,4.03
2023-02-19T12:51:04.407Z,3.90
2023-02-19T12:53:40.244Z,4.10
2023-02-19T12:56:17.504Z,4.05
2023-02-19T12:58:49.733Z,3.65
2023-02-19T13:01:24.407Z,3.40
2023-02-19T13:04:19.468Z,3.97
2023-02-19T13:07:15.114Z,3.38
2023-02-19T13:09:57.057Z,3.58
2023-02-19T13:12:29.439Z,4.30
2023-02-19T13:15:04.832Z,3.90
2023-02-19T13:17:55.825Z,3.33
2023-02-19T13:20:34.698Z,3.67
2023-02-19T13:23:41.292Z,3.63
2023-02-19T13:26:39.259Z,3.30
2023-02-19T13:29:27.768Z,3.20
2023-02-19T13:32:04.067Z,3.70
2023-02-19T13:34:56.000Z,3.50
2023-02-19T13:37:24.503Z,3.42
2023-02-19T13:39:54.084Z,3.03
2023-02-19T13:42:25.907Z,3.22
2023-02-19T13:44:57.721Z,2.95
2023-02-19T13:47:47.272Z,3.55
2023-02-19T13:50:28.815Z,2.50
2023-02-19T13:52:57.745Z,2.90
2023-02-19T13:55:47.502Z,3.03
2023-02-19T13:58:55.384Z,2.90
2023-02-19T14:01:52.061Z,2.88
2023-02-19T14:04:51.993Z,2.65
2023-02-19T14:07:19.031Z,3.17
2023-02-19T14:09:47.221Z,3.05
2023-02-19T14:12:15.890Z,2.75
2023-02-19T14:14:51.779Z,3.00
2023-02-19T14:17:42.401Z,3.40
2023-02-19T14:20:09.405Z,2.45
2023-02-19T14:23:02.090Z,2.70
2023-02-19T14:25:29.164Z,3.30
2023-02-19T14:28:14.961Z,3.08
2023-02-19T14:31:09.225Z,2.75
2023-02-19T14:36:19.534Z,2.95
2023-02-19T14:38:49.190Z,2.28
2023-02-19T14:41:17.728Z,2.83
2023-02-19T14:43:49.395Z,2.55
2023-02-19T14:46:19.463Z,2.40
2023-02-19T14:48:49.650Z,2.60
2023-02-19T14:51:22.838Z,2.42
2023-02-19T14:53:52.143Z,2.40
2023-02-19T14:56:23.498Z,2.30
2023-02-19T14:59:13.117Z,2.10
2023-02-19T15:01:40.716Z,1.80
2023-02-19T15:04:26.210Z,2.10
2023-02-19T15:06:56.979Z,1.77
2023-02-19T15:09:52.198Z,2.13
2023-02-19T15:12:23.928Z,1.92
2023-02-19T15:14:55.220Z,2.50
2023-02-19T15:17:34.622Z,2.55
2023-02-19T15:20:18.289Z,2.20
2023-02-19T15:22:46.745Z,1.70
2023-02-19T15:25:22.809Z,1.50
2023-02-19T15:27:51.089Z,2.05
2023-02-19T15:30:28.647Z,2.00
2023-02-19T15:33:01.093Z,2.08
2023-02-19T15:35:29.325Z,2.20
2023-02-19T15:37:57.183Z,2.10
2023-02-19T15:40:31.036Z,2.28
2023-02-19T15:45:37.255Z,2.10
2023-02-19T15:48:18.599Z,2.38
2023-02-19T15:50:57.998Z,1.80
2023-02-19T15:53:29.849Z,2.25
2023-02-19T15:56:03.101Z,2.20
2023-02-19T15:58:33.311Z,2.03
2023-02-19T16:01:05.061Z,1.88
2023-02-19T16:03:33.051Z,2.08
2023-02-19T16:06:00.744Z,1.83
2023-02-19T16:08:35.150Z,1.77
2023-02-19T16:11:28.246Z,2.10
2023-02-19T16:14:23.433Z,1.88
2023-02-19T16:16:55.307Z,2.00
2023-02-19T16:19:32.726Z,1.60
2023-02-19T16:22:01.016Z,1.65
2023-02-19T16:24:45.442Z,1.73
2023-02-19T16:27:39.247Z,1.55
2023-02-19T16:30:29.984Z,1.65
2023-02-19T16:33:37.218Z,1.55
2023-02-19T16:36:32.954Z,1.30
2023-02-19T16:39:09.533Z,2.08
2023-02-19T16:41:45.619Z,1.40
2023-02-19T16:44:39.213Z,1.13
2023-02-19T16:47:24.113Z,1.33
2023-02-19T16:49:51.655Z,1.10
2023-02-19T16:52:18.881Z,1.50
2023-02-19T16:54:48.608Z,1.05
2023-02-19T16:57:15.835Z,1.20
2023-02-19T16:59:43.027Z,1.00
2023-02-19T17:02:19.856Z,1.55
2023-02-19T17:04:49.168Z,1.17
2023-02-19T17:07:18.627Z,1.30
2023-02-19T17:09:45.866Z,1.00
2023-02-19T17:12:15.068Z,1.00
2023-02-19T17:14:42.606Z,1.45
2023-02-19T17:17:09.680Z,1.08
2023-02-19T17:19:36.844Z,1.20
2023-02-19T17:22:04.458Z,1.10
2023-02-19T17:24:32.020Z,0.90
2023-02-19T17:26:59.178Z,1.20
2023-02-19T17:29:26.343Z,1.10
2023-02-19T17:31:53.488Z,1.10
2023-02-19T17:34:20.543Z,1.20
2023-02-19T17:36:48.751Z,1.20
2023-02-19T17:39:16.274Z,1.33
2023-02-19T17:41:43.994Z,1.20
2023-02-19T17:44:11.455Z,1.35
2023-02-19T17:46:39.815Z,1.15
2023-02-19T17:49:07.796Z,1.40
2023-02-19T17:51:35.831Z,1.60
2023-02-19T17:54:02.955Z,1.25
2023-02-19T17:56:30.283Z,1.40
2023-02-19T17:58:58.930Z,1.25
2023-02-19T18:01:26.217Z,1.33
2023-02-19T18:03:53.409Z,1.35
2023-02-19T18:06:21.208Z,1.50
2023-02-19T18:08:53.184Z,1.55
2023-02-19T18:11:22.541Z,1.73
2023-02-19T18:13:51.415Z,1.30
2023-02-19T18:16:18.982Z,1.33
2023-02-19T18:18:46.688Z,1.23
2023-02-19T18:21:14.614Z,1.52
2023-02-19T18:23:42.258Z,1.08
2023-02-19T18:26:11.551Z,1.30
2023-02-19T18:28:39.358Z,1.88
2023-02-19T18:31:06.937Z,1.30
2023-02-19T18:33:35.479Z,1.10
2023-02-19T18:36:02.871Z,1.13
2023-02-19T18:38:30.068Z,1.42
2023-02-19T18:40:58.772Z,1.30
2023-02-19T18:43:26.095Z,1.15
2023-02-19T18:45:53.293Z,1.27
2023-02-19T18:48:20.467Z,1.25
2023-02-19T18:50:47.758Z,1.05
2023-02-19T18:53:14.758Z,1.40
2023-02-19T18:55:41.983Z,1.30
2023-02-19T18:58:09.049Z,1.20
2023-02-19T19:00:36.345Z,1.80
2023-02-19T19:03:03.418Z,1.35
2023-02-19T19:05:30.634Z,1.75
2023-02-19T19:07:59.643Z,1.33
2023-02-19T19:10:29.322Z,1.38
2023-02-19T19:12:56.718Z,1.42
2023-02-19T19:15:24.180Z,2.03
2023-02-19T19:17:52.093Z,1.40
2023-02-19T19:20:23.543Z,1.42
2023-02-19T19:22:52.696Z,1.30
2023-02-19T19:25:21.783Z,1.35
2023-02-19T19:27:50.935Z,2.10
2023-02-19T19:30:20.527Z,1.98
2023-02-19T19:32:52.488Z,2.38
2023-02-19T19:35:21.761Z,1.60
2023-02-19T19:37:49.399Z,1.88
2023-02-19T19:40:18.156Z,1.77
2023-02-19T19:42:45.282Z,1.80
2023-02-19T19:45:15.233Z,1.50
2023-02-19T19:47:43.119Z,1.30
2023-02-19T19:50:12.342Z,1.90
2023-02-19T19:52:39.635Z,1.73
2023-02-19T19:55:07.607Z,1.73
2023-02-19T19:57:34.780Z,1.92
2023-02-19T20:00:02.256Z,2.15
2023-02-19T20:02:29.382Z,1.92
2023-02-19T20:04:56.513Z,1.98
2023-02-19T20:07:23.981Z,1.45
2023-02-19T20:09:51.447Z,1.98
2023-02-19T20:12:18.458Z,2.15
2023-02-19T20:14:46.976Z,2.05
2023-02-19T20:17:14.906Z,1.77
2023-02-19T20:19:42.384Z,1.73
2023-02-19T20:22:09.447Z,1.67
2023-02-19T20:24:36.863Z,1.85
2023-02-19T20:27:04.745Z,1.95
2023-02-19T20:29:33.750Z,1.70
2023-02-19T20:32:02.774Z,2.05
2023-02-19T20:34:30.608Z,1.90
2023-02-19T20:36:58.028Z,2.75
2023-02-19T20:39:29.402Z,2.05
2023-02-19T20:41:59.539Z,3.20
2023-02-19T20:44:30.618Z,2.22
2023-02-19T20:47:00.472Z,2.20
2023-02-19T20:49:31.677Z,1.80
2023-02-19T20:52:02.730Z,2.25
2023-02-19T20:54:34.151Z,1.73
2023-02-19T20:57:04.168Z,1.40
2023-02-19T20:59:35.615Z,1.90
2023-02-19T21:02:08.729Z,1.40
2023-02-19T21:04:38.393Z,1.70
2023-02-19T21:07:05.586Z,1.58
2023-02-19T21:09:32.896Z,1.40
2023-02-19T21:12:00.762Z,1.40
2023-02-19T21:14:28.757Z,1.50
2023-02-19T21:16:57.063Z,1.30
2023-02-19T21:19:25.085Z,1.30
2023-02-19T21:21:52.344Z,1.13
2023-02-19T21:24:19.428Z,1.50
2023-02-19T21:26:46.535Z,1.25
2023-02-19T21:29:31.429Z,1.27
2023-02-19T21:31:59.131Z,1.42
2023-02-19T21:34:30.330Z,1.08
2023-02-19T21:36:58.688Z,1.38
2023-02-19T21:39:28.884Z,1.38
2023-02-19T21:41:58.910Z,1.40
2023-02-19T21:44:26.731Z,1.27
2023-02-19T21:46:53.777Z,1.35
2023-02-19T21:49:20.952Z,1.25
2023-02-19T21:51:51.074Z,1.48
2023-02-19T21:54:27.280Z,1.20
2023-02-19T21:56:54.740Z,1.35
2023-02-19T21:59:22.774Z,1.40
2023-02-19T22:01:50.861Z,1.38
2023-02-19T22:04:20.332Z,1.77
2023-02-19T22:06:47.883Z,1.30
2023-02-19T22:09:15.649Z,1.35
2023-02-19T22:11:43.002Z,1.38
2023-02-19T22:14:10.082Z,1.40
2023-02-19T22:16:37.342Z,1.52
2023-02-19T22:19:04.769Z,1.10
2023-02-19T22:21:35.686Z,1.05
2023-02-19T22:24:03.707Z,1.48
2023-02-19T22:26:35.775Z,0.93
2023-02-19T22:29:07.410Z,1.05
2023-02-19T22:31:35.792Z,0.80
2023-02-19T22:34:03.467Z,1.10
2023-02-19T22:36:34.438Z,1.00
2023-02-19T22:39:02.042Z,1.48
2023-02-19T22:41:29.850Z,1.00
2023-02-19T22:43:58.415Z,1.10
2023-02-19T22:46:27.911Z,0.88
2023-02-19T22:48:55.176Z,1.10
2023-02-19T22:51:24.110Z,1.00
2023-02-19T22:53:54.226Z,0.93
2023-02-19T22:56:24.296Z,0.90
2023-02-19T22:58:52.168Z,0.90
2023-02-19T23:01:19.930Z,1.02
2023-02-19T23:03:51.823Z,1.02
2023-02-19T23:06:26.112Z,1.00
2023-02-19T23:08:55.165Z,1.10
2023-02-19T23:11:24.781Z,1.33
2023-02-19T23:13:51.829Z,1.13
2023-02-19T23:16:18.894Z,0.90
2023-02-19T23:18:46.149Z,1.10
2023-02-19T23:21:13.623Z,0.90
2023-02-19T23:23:45.132Z,1.10
2023-02-19T23:26:13.880Z,0.90
2023-02-19T23:28:41.951Z,0.90
2023-02-19T23:31:09.610Z,1.10
2023-02-19T23:33:36.995Z,1.05
2023-02-19T23:36:04.337Z,1.08
2023-02-19T23:38:31.406Z,0.95
2023-02-19T23:40:59.375Z,0.88
2023-02-19T23:43:26.577Z,0.95
2023-02-19T23:45:53.981Z,1.05
2023-02-19T23:48:21.100Z,0.90
2023-02-19T23:50:48.328Z,0.95
2023-02-19T23:53:15.432Z,1.00
2023-02-19T23:55:42.629Z,1.00
2023-02-19T23:58:09.711Z,0.90
